Time;durP1;ratioP1;P1;durP2;ratioP2;P2;SDS_P1;SDS_P2;PMS_P1;PMS_P2;Temp;Humidity;BMP_temperature;BMP_pressure;BME280_temperature;BME280_humidity;BME280_pressure;Samples;Min_cycle;Max_cycle;Signal;HPM_P1;HPM_P2
2024/03/17 14:57:30;;;;;;;7.45;6.18;;;11.30;99.90;;;;;;5135246;27;20463;-64
2024/03/17 14:59:56;;;;;;;7.90;6.40;;;11.30;99.90;;;;;;5134778;27;20039;-64
2024/03/17 15:02:23;;;;;;;6.65;6.03;;;11.30;99.90;;;;;;5132321;27;20139;-64
2024/03/17 15:04:51;;;;;;;7.32;6.47;;;11.30;99.90;;;;;;5134443;27;20118;-64
2024/03/17 15:07:17;;;;;;;6.65;5.90;;;11.30;99.90;;;;;;5132481;27;20443;-64
2024/03/17 15:09:43;;;;;;;8.48;6.55;;;11.30;99.90;;;;;;5131928;27;20031;-64
2024/03/17 15:12:08;;;;;;;6.57;5.90;;;11.30;99.90;;;;;;5133256;27;20099;-64
2024/03/17 15:14:34;;;;;;;6.90;6.20;;;11.30;99.90;;;;;;5131711;27;20077;-64
2024/03/17 15:17:00;;;;;;;9.10;5.72;;;11.20;99.90;;;;;;5136221;27;20066;-65
2024/03/17 15:19:26;;;;;;;7.50;6.45;;;11.30;99.90;;;;;;5136642;27;20085;-64
2024/03/17 15:21:52;;;;;;;9.65;7.50;;;11.20;99.90;;;;;;5134624;27;20042;-64
2024/03/17 15:24:18;;;;;;;7.32;5.95;;;11.30;99.90;;;;;;5135973;27;20046;-64
2024/03/17 15:26:44;;;;;;;7.15;6.40;;;11.20;99.90;;;;;;5137477;27;20116;-64
2024/03/17 15:29:12;;;;;;;6.80;6.20;;;11.30;99.90;;;;;;5135755;27;20033;-64
2024/03/17 15:31:38;;;;;;;6.43;5.82;;;11.20;99.90;;;;;;5138224;27;20035;-64
2024/03/17 15:34:04;;;;;;;10.30;6.20;;;11.30;99.90;;;;;;5136585;27;20071;-64
2024/03/17 15:36:30;;;;;;;7.78;6.53;;;11.20;99.90;;;;;;5137939;27;20515;-64
2024/03/17 15:38:55;;;;;;;6.88;6.22;;;11.20;99.90;;;;;;5133831;27;20053;-64
2024/03/17 15:41:21;;;;;;;7.90;5.15;;;11.30;99.90;;;;;;5134131;27;20125;-64
2024/03/17 15:43:47;;;;;;;6.53;5.93;;;11.20;99.90;;;;;;5139888;27;20126;-64
2024/03/17 15:46:14;;;;;;;7.68;6.10;;;11.20;99.90;;;;;;5138393;27;20031;-64
2024/03/17 15:48:40;;;;;;;6.25;5.63;;;11.10;99.90;;;;;;5136681;27;20039;-64
2024/03/17 15:51:05;;;;;;;8.23;6.50;;;11.20;99.90;;;;;;5138417;27;20055;-64
2024/03/17 15:53:31;;;;;;;7.25;6.38;;;11.20;99.90;;;;;;5134473;27;20046;-64
2024/03/17 15:56:02;;;;;;;6.10;5.57;;;11.20;99.90;;;;;;5134466;27;20051;-64
2024/03/17 15:58:29;;;;;;;8.40;5.88;;;11.10;99.90;;;;;;5121846;27;20055;-64
2024/03/17 16:00:57;;;;;;;9.82;6.35;;;11.10;99.90;;;;;;5118012;27;20092;-64
2024/03/17 16:03:28;;;;;;;6.80;6.15;;;11.10;99.90;;;;;;5123832;27;20385;-64
2024/03/17 16:05:57;;;;;;;6.55;5.80;;;11.10;99.90;;;;;;5120846;27;20497;-64
2024/03/17 16:08:23;;;;;;;6.05;5.45;;;11.10;99.90;;;;;;5122419;27;20031;-64
2024/03/17 16:10:56;;;;;;;8.05;6.43;;;11.10;99.90;;;;;;5152737;27;20112;-64
2024/03/17 16:13:26;;;;;;;8.07;6.38;;;11.10;99.90;;;;;;5118908;27;20473;-64
2024/03/17 16:15:53;;;;;;;6.35;5.72;;;11.10;99.90;;;;;;5118736;27;20051;-64
2024/03/17 16:18:19;;;;;;;8.05;6.55;;;11.00;99.90;;;;;;5119496;27;20391;-64
2024/03/17 16:20:48;;;;;;;7.03;6.32;;;11.10;99.90;;;;;;5114395;27;20078;-64
2024/03/17 16:23:21;;;;;;;9.68;8.68;;;11.00;99.90;;;;;;5116315;27;20051;-64
2024/03/17 16:25:48;;;;;;;7.38;6.68;;;11.00;99.90;;;;;;5117213;27;20040;-64
2024/03/17 16:28:16;;;;;;;7.10;6.38;;;11.00;99.90;;;;;;5151368;27;20111;-64
2024/03/17 16:30:42;;;;;;;7.35;6.65;;;11.00;99.90;;;;;;5130679;27;20481;-64
2024/03/17 16:33:08;;;;;;;7.82;6.97;;;10.90;99.90;;;;;;5116989;27;20038;-64
2024/03/17 16:35:37;;;;;;;7.50;6.78;;;10.90;99.90;;;;;;5101239;27;20042;-64
2024/03/17 16:38:03;;;;;;;7.70;6.68;;;10.90;99.90;;;;;;5119912;27;20047;-64
2024/03/17 16:40:29;;;;;;;9.18;7.43;;;10.90;99.90;;;;;;5115548;27;20042;-64
2024/03/17 16:42:55;;;;;;;7.97;7.10;;;10.90;99.90;;;;;;5118895;27;20125;-64
2024/03/17 16:45:26;;;;;;;10.23;7.43;;;10.80;99.90;;;;;;5153798;27;20051;-64
2024/03/17 16:47:52;;;;;;;8.50;7.70;;;10.80;99.90;;;;;;5116880;27;20044;-63
2024/03/17 16:50:17;;;;;;;8.18;6.95;;;10.80;99.90;;;;;;5115116;27;20058;-64
2024/03/17 16:52:43;;;;;;;8.75;7.25;;;10.80;99.90;;;;;;5116213;27;20023;-64
2024/03/17 16:55:09;;;;;;;7.57;6.78;;;10.80;99.90;;;;;;5116505;27;20036;-64
2024/03/17 16:57:36;;;;;;;8.48;7.60;;;10.70;99.90;;;;;;5116748;27;20112;-64
2024/03/17 17:00:13;;;;;;;11.45;7.13;;;10.80;99.90;;;;;;5113225;27;20035;-64
2024/03/17 17:02:44;;;;;;;7.68;6.45;;;10.80;99.90;;;;;;5117309;27;20046;-64
2024/03/17 17:05:14;;;;;;;9.43;7.82;;;10.80;99.90;;;;;;5118723;27;20515;-64
2024/03/17 17:07:46;;;;;;;8.20;7.32;;;10.80;99.90;;;;;;5117340;27;20019;-63
2024/03/17 17:10:15;;;;;;;7.65;6.70;;;10.70;99.90;;;;;;5148339;27;20130;-64
2024/03/17 17:12:42;;;;;;;7.70;6.88;;;10.70;99.90;;;;;;5114037;27;20066;-64
2024/03/17 17:15:17;;;;;;;7.85;7.10;;;10.70;99.90;;;;;;5116989;27;20365;-63
2024/03/17 17:17:44;;;;;;;8.85;7.95;;;10.70;99.90;;;;;;5149957;27;20540;-64
2024/03/17 17:20:13;;;;;;;7.68;6.95;;;10.70;99.90;;;;;;5117060;27;20079;-64
2024/03/17 17:22:39;;;;;;;7.82;7.13;;;10.70;99.90;;;;;;5117627;27;20044;-64
2024/03/17 17:25:07;;;;;;;7.53;6.82;;;10.60;99.90;;;;;;5101716;27;20081;-63
2024/03/17 17:27:36;;;;;;;9.90;7.18;;;10.70;99.90;;;;;;5119833;27;20527;-64
2024/03/17 17:30:02;;;;;;;8.85;7.90;;;10.60;99.90;;;;;;5114062;27;20565;-64
2024/03/17 17:32:29;;;;;;;8.82;7.30;;;10.60;99.90;;;;;;5120715;27;20050;-64
2024/03/17 17:34:54;;;;;;;8.00;7.20;;;10.60;99.90;;;;;;5118418;27;20096;-64
2024/03/17 17:37:20;;;;;;;8.80;7.57;;;10.50;99.90;;;;;;5120611;27;20600;-64
2024/03/17 17:39:45;;;;;;;9.50;7.55;;;10.60;99.90;;;;;;5120391;27;20035;-64
2024/03/17 17:42:11;;;;;;;9.55;7.22;;;10.40;99.90;;;;;;5120649;27;20035;-64
2024/03/17 17:44:38;;;;;;;8.63;7.55;;;10.40;99.90;;;;;;5118031;27;20123;-64
2024/03/17 17:47:04;;;;;;;9.88;7.43;;;10.40;99.90;;;;;;5148329;27;20093;-63
2024/03/17 17:49:29;;;;;;;10.45;8.10;;;10.50;99.90;;;;;;5115240;27;20034;-64
2024/03/17 17:51:55;;;;;;;9.68;8.77;;;10.40;99.90;;;;;;5117944;27;20067;-64
2024/03/17 17:54:23;;;;;;;8.43;7.63;;;10.40;99.90;;;;;;5116929;27;20076;-64
2024/03/17 17:56:49;;;;;;;9.63;8.73;;;10.30;99.90;;;;;;5149488;27;20043;-64
2024/03/17 17:59:14;;;;;;;10.05;8.02;;;10.30;99.90;;;;;;5118653;27;20527;-64
2024/03/17 18:01:40;;;;;;;8.13;6.95;;;10.30;99.90;;;;;;5117300;27;20047;-64
2024/03/17 18:04:06;;;;;;;9.98;7.72;;;10.20;99.90;;;;;;5117222;27;20072;-63
2024/03/17 18:06:33;;;;;;;7.97;7.28;;;10.20;99.90;;;;;;5147757;27;20054;-63
2024/03/17 18:09:02;;;;;;;10.15;8.00;;;10.10;99.90;;;;;;5121943;27;20043;-64
2024/03/17 18:11:28;;;;;;;7.65;6.95;;;10.20;99.90;;;;;;5119569;27;20039;-63
2024/03/17 18:13:54;;;;;;;10.13;7.43;;;10.10;99.90;;;;;;5123130;27;20076;-63
2024/03/17 18:16:20;;;;;;;8.13;7.28;;;10.10;99.90;;;;;;5117676;27;20043;-64
2024/03/17 18:18:46;;;;;;;8.15;7.35;;;10.10;99.90;;;;;;5125182;27;20096;-63
2024/03/17 18:21:12;;;;;;;10.18;8.20;;;10.10;99.90;;;;;;5119915;27;20481;-63
2024/03/17 18:23:40;;;;;;;8.60;7.68;;;10.10;99.90;;;;;;5119207;27;20502;-63
2024/03/17 18:26:11;;;;;;;8.82;7.63;;;10.10;99.90;;;;;;5116411;27;20106;-63
2024/03/17 18:28:38;;;;;;;9.57;7.63;;;10.00;99.90;;;;;;5123787;27;20056;-63
2024/03/17 18:31:07;;;;;;;10.48;8.10;;;10.10;99.90;;;;;;5118758;27;20074;-63
2024/03/17 18:33:36;;;;;;;9.93;8.93;;;10.10;99.90;;;;;;5122152;27;20067;-64
2024/03/17 18:36:03;;;;;;;9.18;7.95;;;10.00;99.90;;;;;;5122342;27;20369;-63
2024/03/17 18:38:29;;;;;;;8.75;7.82;;;10.10;99.90;;;;;;5119512;27;20031;-64
2024/03/17 18:41:12;;;;;;;11.60;8.45;;;10.10;99.90;;;;;;5117388;27;20097;-64
2024/03/17 18:43:48;;;;;;;8.18;7.32;;;10.10;99.90;;;;;;5120508;27;20405;-64
2024/03/17 18:46:15;;;;;;;10.98;8.93;;;10.00;99.90;;;;;;5118538;27;20051;-63
2024/03/17 18:48:46;;;;;;;8.18;7.40;;;10.00;99.90;;;;;;5121102;28;20043;-64
2024/03/17 18:51:12;;;;;;;8.38;7.65;;;10.00;99.90;;;;;;5120427;27;20495;-64
2024/03/17 18:53:41;;;;;;;9.27;8.35;;;9.90;99.90;;;;;;5120668;28;20047;-64
2024/03/17 18:56:07;;;;;;;9.75;7.50;;;10.00;99.90;;;;;;5115401;27;20039;-64
2024/03/17 18:58:35;;;;;;;10.50;8.45;;;9.90;99.90;;;;;;5119164;27;20035;-64
2024/03/17 19:01:05;;;;;;;9.43;8.50;;;9.80;99.90;;;;;;5120572;27;20051;-63
2024/03/17 19:03:31;;;;;;;9.10;8.20;;;9.90;99.90;;;;;;5119738;27;20035;-64
2024/03/17 19:06:18;;;;;;;12.02;8.50;;;9.90;99.90;;;;;;5120626;27;20488;-64
2024/03/17 19:08:45;;;;;;;8.60;7.70;;;9.90;99.90;;;;;;5119148;28;20058;-63
2024/03/17 19:11:13;;;;;;;9.48;8.48;;;9.80;99.90;;;;;;5118899;27;20043;-64
2024/03/17 19:13:40;;;;;;;10.02;8.27;;;9.80;99.90;;;;;;5118679;27;20075;-64
2024/03/17 19:16:08;;;;;;;9.73;8.82;;;9.80;99.90;;;;;;5119057;28;20058;-64
2024/03/17 19:18:36;;;;;;;11.35;9.15;;;9.70;99.90;;;;;;5117438;27;20047;-64
2024/03/17 19:21:07;;;;;;;9.70;8.55;;;9.80;99.90;;;;;;5100392;28;20046;-64
2024/03/17 19:23:34;;;;;;;10.80;9.50;;;9.70;99.90;;;;;;5124618;27;20552;-64
2024/03/17 19:26:05;;;;;;;9.88;8.68;;;9.70;99.90;;;;;;5120931;27;20035;-64
2024/03/17 19:28:31;;;;;;;10.40;9.05;;;9.70;99.90;;;;;;5116577;27;20473;-64
2024/03/17 19:30:58;;;;;;;10.50;9.38;;;9.70;99.90;;;;;;5115240;28;20075;-64
2024/03/17 19:33:27;;;;;;;10.98;9.27;;;9.60;99.90;;;;;;5124824;27;20135;-64
2024/03/17 19:35:54;;;;;;;13.43;9.60;;;9.60;99.90;;;;;;5119973;27;20052;-64
2024/03/17 19:38:24;;;;;;;11.55;9.45;;;9.60;99.90;;;;;;5122653;27;20477;-64
2024/03/17 19:40:57;;;;;;;9.90;8.90;;;9.60;99.90;;;;;;5124960;27;20047;-64
2024/03/17 19:43:25;;;;;;;10.25;9.30;;;9.60;99.90;;;;;;5123518;27;20098;-64
2024/03/17 19:46:09;;;;;;;10.63;9.00;;;9.50;99.90;;;;;;5124464;27;20401;-64
2024/03/17 19:48:41;;;;;;;11.52;10.35;;;9.50;99.90;;;;;;5152593;27;20031;-64
2024/03/17 19:51:09;;;;;;;10.23;9.23;;;9.50;99.90;;;;;;5114646;27;20490;-64
2024/03/17 19:53:36;;;;;;;10.93;9.93;;;9.50;99.90;;;;;;5120732;27;20043;-65
2024/03/17 19:56:02;;;;;;;10.60;9.38;;;9.40;99.90;;;;;;5120066;27;20048;-64
2024/03/17 19:58:28;;;;;;;10.00;9.02;;;9.40;99.90;;;;;;5122123;27;20439;-64
2024/03/17 20:00:54;;;;;;;12.40;11.00;;;9.40;99.90;;;;;;5122537;27;20086;-64
2024/03/17 20:03:20;;;;;;;10.90;9.45;;;9.30;99.90;;;;;;5120726;27;20127;-64
2024/03/17 20:05:46;;;;;;;12.15;10.07;;;9.20;99.90;;;;;;5122335;27;20077;-64
2024/03/17 20:08:12;;;;;;;10.63;9.32;;;9.20;99.90;;;;;;5120658;27;20027;-64
2024/03/17 20:10:38;;;;;;;11.50;10.30;;;9.20;99.90;;;;;;5120570;27;20493;-64
2024/03/17 20:13:05;;;;;;;11.10;10.00;;;9.10;99.90;;;;;;5155121;27;20078;-64
2024/03/17 20:15:32;;;;;;;11.15;10.05;;;9.10;99.90;;;;;;5129083;27;20053;-64
2024/03/17 20:17:58;;;;;;;12.35;10.98;;;9.10;99.90;;;;;;5120109;27;20088;-64
2024/03/17 20:20:24;;;;;;;11.48;9.85;;;9.00;99.90;;;;;;5125276;27;20042;-64
2024/03/17 20:22:50;;;;;;;12.52;11.20;;;9.00;99.90;;;;;;5122438;27;20267;-64
2024/03/17 20:25:15;;;;;;;10.77;9.32;;;9.00;99.90;;;;;;5121980;27;20047;-64
2024/03/17 20:27:41;;;;;;;13.10;11.30;;;9.00;99.90;;;;;;5123083;27;20032;-64
2024/03/17 20:30:08;;;;;;;12.50;10.50;;;9.00;99.90;;;;;;5122210;27;20061;-64
2024/03/17 20:32:33;;;;;;;11.50;10.38;;;8.90;99.90;;;;;;5121415;27;20064;-64
2024/03/17 20:34:59;;;;;;;10.85;9.75;;;8.90;99.90;;;;;;5118997;27;20047;-64
2024/03/17 20:37:26;;;;;;;14.25;10.15;;;8.90;99.90;;;;;;5120091;27;20035;-64
2024/03/17 20:39:53;;;;;;;11.80;10.57;;;8.90;99.90;;;;;;5117507;27;20409;-64
2024/03/17 20:42:19;;;;;;;12.50;11.30;;;8.90;99.90;;;;;;5121380;27;20077;-64
2024/03/17 20:44:45;;;;;;;11.40;10.25;;;8.90;99.90;;;;;;5124544;27;20559;-64
2024/03/17 20:47:12;;;;;;;10.70;9.70;;;8.90;99.90;;;;;;5119505;27;20043;-64
2024/03/17 20:49:38;;;;;;;10.27;9.27;;;8.90;99.90;;;;;;5117584;27;20035;-64
2024/03/17 20:52:05;;;;;;;13.18;11.05;;;8.90;99.90;;;;;;5120718;27;20039;-64
2024/03/17 20:54:31;;;;;;;10.93;9.93;;;8.90;99.90;;;;;;5123360;27;20054;-64
2024/03/17 20:56:57;;;;;;;12.73;10.52;;;8.90;99.90;;;;;;5120729;27;20047;-64
2024/03/17 20:59:24;;;;;;;12.25;11.00;;;8.90;99.90;;;;;;5146287;27;20051;-64
2024/03/17 21:01:49;;;;;;;12.13;10.82;;;8.90;99.90;;;;;;5149894;27;20088;-64
2024/03/17 21:04:15;;;;;;;11.38;10.15;;;8.90;99.90;;;;;;5117985;27;20637;-64
2024/03/17 21:06:42;;;;;;;12.10;9.50;;;8.90;99.90;;;;;;5115975;27;20039;-64
2024/03/17 21:09:10;;;;;;;12.13;10.93;;;8.90;99.90;;;;;;5118012;27;20035;-64
2024/03/17 21:11:39;;;;;;;12.50;10.30;;;8.90;99.90;;;;;;5121188;27;20035;-64
2024/03/17 21:14:04;;;;;;;14.10;10.30;;;8.90;99.90;;;;;;5148385;27;20481;-64
2024/03/17 21:16:30;;;;;;;12.88;9.85;;;8.90;99.90;;;;;;5120697;27;20109;-64
2024/03/17 21:18:56;;;;;;;11.57;9.52;;;8.90;99.90;;;;;;5114677;27;20450;-64
2024/03/17 21:21:21;;;;;;;12.23;10.80;;;8.80;99.90;;;;;;5116595;27;20043;-64
2024/03/17 21:23:48;;;;;;;12.43;10.05;;;8.80;99.90;;;;;;5115823;27;20051;-64
2024/03/17 21:26:14;;;;;;;12.15;10.57;;;8.80;99.90;;;;;;5116216;27;20079;-64
2024/03/17 21:28:40;;;;;;;11.15;9.98;;;8.80;99.90;;;;;;5121024;27;20425;-64
2024/03/17 21:31:07;;;;;;;12.25;10.25;;;9.00;99.90;;;;;;5117927;27;20043;-64
2024/03/17 21:33:33;;;;;;;15.32;11.75;;;8.80;99.90;;;;;;5149635;27;20077;-64
2024/03/17 21:36:00;;;;;;;12.88;10.05;;;8.70;99.90;;;;;;5133856;27;20063;-64
2024/03/17 21:38:26;;;;;;;12.98;11.07;;;8.80;99.90;;;;;;5122551;27;20045;-64
2024/03/17 21:40:52;;;;;;;11.63;10.00;;;8.70;99.90;;;;;;5153428;27;20497;-64
2024/03/17 21:43:17;;;;;;;13.52;11.13;;;8.70;99.90;;;;;;5119177;27;20100;-64
2024/03/17 21:45:44;;;;;;;12.55;11.25;;;8.70;99.90;;;;;;5119913;27;20049;-64
2024/03/17 21:48:09;;;;;;;11.55;10.35;;;8.70;99.90;;;;;;5153043;27;20044;-64
2024/03/17 21:50:37;;;;;;;12.77;10.60;;;8.70;99.90;;;;;;5119975;27;20042;-64
2024/03/17 21:53:03;;;;;;;11.80;10.40;;;8.70;99.90;;;;;;5116358;27;20036;-64
2024/03/17 21:55:29;;;;;;;11.48;10.32;;;8.60;99.90;;;;;;5118597;27;20049;-64
2024/03/17 21:57:55;;;;;;;14.55;10.13;;;8.70;99.90;;;;;;5118743;27;20032;-64
2024/03/17 22:00:21;;;;;;;14.15;11.13;;;8.60;99.90;;;;;;5150161;27;20039;-64
2024/03/17 22:02:47;;;;;;;11.90;10.48;;;8.60;99.90;;;;;;5120355;27;20091;-64
2024/03/17 22:05:13;;;;;;;12.60;9.98;;;8.70;99.90;;;;;;5114021;27;21109;-64
2024/03/17 22:07:39;;;;;;;11.90;10.75;;;8.60;99.90;;;;;;5122049;27;20061;-64
2024/03/17 22:10:06;;;;;;;11.40;10.27;;;8.70;99.90;;;;;;5120450;27;20074;-64
2024/03/17 22:12:35;;;;;;;12.18;10.95;;;8.70;99.90;;;;;;5120776;27;20134;-64
2024/03/17 22:15:03;;;;;;;13.00;11.02;;;8.70;99.90;;;;;;5119516;27;20443;-64
2024/03/17 22:17:32;;;;;;;13.60;11.70;;;8.60;99.90;;;;;;5118787;27;20043;-64
2024/03/17 22:19:58;;;;;;;13.40;12.00;;;8.70;99.90;;;;;;5116374;27;20043;-64
2024/03/17 22:22:25;;;;;;;13.13;11.82;;;8.70;99.90;;;;;;5118987;27;20034;-64
2024/03/17 22:24:50;;;;;;;14.73;12.52;;;8.70;99.90;;;;;;5148740;27;20039;-64
2024/03/17 22:27:16;;;;;;;13.70;12.30;;;8.70;99.90;;;;;;5116534;27;20088;-64
2024/03/17 22:29:42;;;;;;;15.18;12.38;;;8.70;99.90;;;;;;5152142;27;20043;-64
2024/03/17 22:32:07;;;;;;;14.30;12.82;;;8.70;99.90;;;;;;5116033;27;20039;-64
2024/03/17 22:34:33;;;;;;;13.90;12.50;;;8.70;99.90;;;;;;5116424;27;20107;-64
2024/03/17 22:36:59;;;;;;;15.73;13.15;;;8.70;99.90;;;;;;5117063;27;20165;-64
2024/03/17 22:39:24;;;;;;;15.38;13.05;;;8.70;99.90;;;;;;5117527;27;20044;-64
2024/03/17 22:41:50;;;;;;;14.27;12.82;;;8.70;99.90;;;;;;5119879;27;20027;-64
2024/03/17 22:44:16;;;;;;;14.15;12.77;;;8.70;99.90;;;;;;5119888;27;20080;-64
2024/03/17 22:46:41;;;;;;;14.00;12.55;;;8.80;99.90;;;;;;5147874;27;20042;-64
2024/03/17 22:49:08;;;;;;;14.15;12.60;;;8.80;99.90;;;;;;5118851;27;20439;-64
2024/03/17 22:51:33;;;;;;;18.35;13.60;;;8.80;99.90;;;;;;5121271;27;20081;-64
2024/03/17 22:53:59;;;;;;;14.52;12.95;;;9.00;99.90;;;;;;5118575;27;20063;-64
2024/03/17 22:56:27;;;;;;;16.42;13.02;;;8.80;99.90;;;;;;5119233;27;20031;-64
2024/03/17 22:58:53;;;;;;;14.55;13.05;;;8.70;99.90;;;;;;5119309;27;20047;-64
2024/03/17 23:01:19;;;;;;;15.15;13.65;;;8.80;99.90;;;;;;5120517;27;20047;-64
2024/03/17 23:03:45;;;;;;;14.93;13.35;;;8.80;99.90;;;;;;5119123;27;20490;-64
2024/03/17 23:06:11;;;;;;;15.05;13.45;;;8.80;99.90;;;;;;5120027;27;20056;-64
2024/03/17 23:08:37;;;;;;;15.10;13.50;;;8.80;99.90;;;;;;5123476;27;20121;-64
2024/03/17 23:11:08;;;;;;;14.50;13.20;;;8.80;99.90;;;;;;5152670;27;20043;-64
2024/03/17 23:13:37;;;;;;;14.85;13.32;;;8.80;99.90;;;;;;5125069;27;20542;-64
2024/03/17 23:16:04;;;;;;;14.25;12.85;;;8.80;99.90;;;;;;5125877;27;20091;-64
2024/03/17 23:18:30;;;;;;;14.93;13.40;;;8.80;99.90;;;;;;5122154;27;20040;-64
2024/03/17 23:20:57;;;;;;;16.00;13.55;;;8.80;99.90;;;;;;5128176;27;20047;-64
2024/03/17 23:23:23;;;;;;;14.02;12.63;;;8.90;99.90;;;;;;5151218;27;20074;-64
2024/03/17 23:25:49;;;;;;;14.90;13.05;;;8.80;99.90;;;;;;5123737;27;20073;-64
2024/03/17 23:28:17;;;;;;;15.40;12.90;;;8.80;99.90;;;;;;5124339;27;20031;-64
2024/03/17 23:30:43;;;;;;;16.45;14.02;;;8.90;99.90;;;;;;5154843;27;20035;-64
2024/03/17 23:33:09;;;;;;;14.77;13.00;;;8.80;99.90;;;;;;5119190;27;20040;-64
2024/03/17 23:35:38;;;;;;;14.45;12.95;;;8.80;99.90;;;;;;5121488;27;20447;-64
2024/03/17 23:38:05;;;;;;;16.27;13.18;;;8.80;99.90;;;;;;5122275;27;20114;-64
2024/03/17 23:40:34;;;;;;;14.25;12.77;;;8.80;99.90;;;;;;5124165;27;20404;-64
2024/03/17 23:43:01;;;;;;;15.38;13.02;;;8.80;99.90;;;;;;5122831;27;20068;-64
2024/03/17 23:45:27;;;;;;;16.75;13.43;;;8.80;99.90;;;;;;5154556;27;20117;-64
2024/03/17 23:47:53;;;;;;;15.43;13.25;;;8.80;99.90;;;;;;5124585;27;20046;-64
2024/03/17 23:50:18;;;;;;;16.55;13.55;;;8.80;99.90;;;;;;5122019;27;20031;-64
2024/03/17 23:52:46;;;;;;;16.90;13.63;;;8.80;99.90;;;;;;5121493;27;20028;-64
2024/03/17 23:55:13;;;;;;;14.70;13.30;;;8.80;99.90;;;;;;5121890;27;20041;-64
2024/03/17 23:57:39;;;;;;;17.65;13.20;;;8.80;99.90;;;;;;5128278;27;20027;-64
